FMCZ

Details ICAO FMCZ (DZA)
Name Dzaoudzi Pamandzi
Region Comoros, Mayotte, Réunion and Madagascar
Timezone Unknown (UTC+0.0)
Plans Departing 50
Arriving 85
Stats Elevation 23 ft / 7 m (AMSL)
Location -12.809439° 45.282224°
Runways 1
Magnetic Variation 8.134° W
Sunrise 2017-12-15 02:29:10 UTC / 2017-12-15 02:29:10 Local
Sunset 2017-12-15 15:21:33 UTC / 2017-12-15 15:21:33 Local
Advertisement - Login to hide

Runways

ID Width Length Bearing (true) Bearing (mag) Surface Threshold Offset Overrun Length
16 92 ft / 28 m 6,109 ft / 1,862 m 149.93° 158.06° Asphalt 250 ft / 76 m 250 ft / 76 m
34 92 ft / 28 m 6,109 ft / 1,862 m 329.93° 338.06° Asphalt 0 ft / 0 m 82 ft / 25 m

Map

Weather


0- 5 10 15 20 25 30 35+ Temperature / ° C

Clouds and Precipitation
Forecast for 2017-12-15 00:00 UTC. Updated 2 hours ago

Ground ~20,000 ft ~40,000 ft Winds

METAR

FMCZ 142030Z AUTO 00000KT 9999 BKN022/// 27/25 Q1011 NOSIG

TAF

Not found

Frequencies

Tower 119.20 MHz AFIS
Warning: Do not use this data for real-world aviation or navigation. No guarantee of current accuracy is given.